Rollin, Michigan
Current Conditions -  °F | °C
As of 12:53 AM on Saturday 29 Nov 2014 (Local Time) from KADG Reporting Station
Overcast Overcast  
Wind Chill: 23°   Ceiling: 8500
Heat Index: 28°   Visibility: 10mi
Dew Point: 23°   Wind: 5mph
Humidity: 81%   Direction: 140°SE
Pressure: 30.04"   Gusts: NA
Location:  41.91°N, 84.32°W
Report Text: KADG 290553Z AUTO 14004KT 10SM BKN085 OVC100 M02/M05 A3004 RMK AO2 SLP184 T10221050 11022 21033 58015
Loading
Personal Weather Stations






























Interactive Weather Map New forecast layout! Learn more

10-Day Weather Forecast

Advertisements
Track Severe Weather on mobile